sensor_id;sensor_type;location;lat;lon;timestamp;temperature;humidity
52869;DHT22;39100;53.480;6.158;2022-11-25T00:01:20;7.50;99.90
52869;DHT22;39100;53.480;6.158;2022-11-25T00:03:46;7.50;99.90
52869;DHT22;39100;53.480;6.158;2022-11-25T00:06:21;7.60;99.90
52869;DHT22;39100;53.480;6.158;2022-11-25T00:08:49;7.60;99.90
52869;DHT22;39100;53.480;6.158;2022-11-25T00:11:15;7.60;99.90
52869;DHT22;39100;53.480;6.158;2022-11-25T00:13:42;7.60;99.90
52869;DHT22;39100;53.480;6.158;2022-11-25T00:16:10;7.60;99.90
52869;DHT22;39100;53.480;6.158;2022-11-25T00:18:37;7.60;99.90
52869;DHT22;39100;53.480;6.158;2022-11-25T00:21:08;7.60;99.90
52869;DHT22;39100;53.480;6.158;2022-11-25T00:23:35;7.60;99.90
52869;DHT22;39100;53.480;6.158;2022-11-25T00:26:15;7.60;99.90
52869;DHT22;39100;53.480;6.158;2022-11-25T00:28:43;7.60;99.90
52869;DHT22;39100;53.480;6.158;2022-11-25T00:31:12;7.60;99.90
52869;DHT22;39100;53.480;6.158;2022-11-25T00:33:38;7.60;99.90
52869;DHT22;39100;53.480;6.158;2022-11-25T00:36:06;7.60;99.90
52869;DHT22;39100;53.480;6.158;2022-11-25T00:38:36;7.60;99.90
52869;DHT22;39100;53.480;6.158;2022-11-25T00:41:01;7.50;99.90
52869;DHT22;39100;53.480;6.158;2022-11-25T00:43:45;7.50;99.90
52869;DHT22;39100;53.480;6.158;2022-11-25T00:46:29;7.50;99.90
52869;DHT22;39100;53.480;6.158;2022-11-25T00:48:55;7.50;99.90
52869;DHT22;39100;53.480;6.158;2022-11-25T00:51:20;7.50;99.90
52869;DHT22;39100;53.480;6.158;2022-11-25T00:53:46;7.50;99.90
52869;DHT22;39100;53.480;6.158;2022-11-25T00:56:12;7.50;99.90
52869;DHT22;39100;53.480;6.158;2022-11-25T00:58:38;7.50;99.90
52869;DHT22;39100;53.480;6.158;2022-11-25T01:01:04;7.50;99.90
52869;DHT22;39100;53.480;6.158;2022-11-25T01:03:30;7.50;99.90
52869;DHT22;39100;53.480;6.158;2022-11-25T01:06:00;7.70;99.90
52869;DHT22;39100;53.480;6.158;2022-11-25T01:08:26;7.50;99.90
52869;DHT22;39100;53.480;6.158;2022-11-25T01:11:00;7.50;99.90
52869;DHT22;39100;53.480;6.158;2022-11-25T01:13:26;7.50;99.90
52869;DHT22;39100;53.480;6.158;2022-11-25T01:15:52;7.50;99.90
52869;DHT22;39100;53.480;6.158;2022-11-25T01:18:17;7.50;99.90
52869;DHT22;39100;53.480;6.158;2022-11-25T01:20:43;7.50;99.90
52869;DHT22;39100;53.480;6.158;2022-11-25T01:23:08;7.50;99.90
52869;DHT22;39100;53.480;6.158;2022-11-25T01:25:38;7.50;99.90
52869;DHT22;39100;53.480;6.158;2022-11-25T01:28:04;7.60;99.90
52869;DHT22;39100;53.480;6.158;2022-11-25T01:30:29;7.60;99.90
52869;DHT22;39100;53.480;6.158;2022-11-25T01:32:55;7.50;99.90
52869;DHT22;39100;53.480;6.158;2022-11-25T01:35:21;7.60;99.90
52869;DHT22;39100;53.480;6.158;2022-11-25T01:37:46;7.60;99.90
52869;DHT22;39100;53.480;6.158;2022-11-25T01:40:12;7.60;99.90
52869;DHT22;39100;53.480;6.158;2022-11-25T01:42:47;7.60;99.90
52869;DHT22;39100;53.480;6.158;2022-11-25T01:45:32;7.60;99.90
52869;DHT22;39100;53.480;6.158;2022-11-25T01:48:04;7.60;99.90
52869;DHT22;39100;53.480;6.158;2022-11-25T01:50:34;7.60;99.90
52869;DHT22;39100;53.480;6.158;2022-11-25T01:53:03;7.60;99.90
52869;DHT22;39100;53.480;6.158;2022-11-25T01:55:30;7.60;99.90
52869;DHT22;39100;53.480;6.158;2022-11-25T01:58:21;7.60;99.90
52869;DHT22;39100;53.480;6.158;2022-11-25T02:00:50;7.60;99.90
52869;DHT22;39100;53.480;6.158;2022-11-25T02:03:19;7.60;99.90
52869;DHT22;39100;53.480;6.158;2022-11-25T02:06:00;7.60;99.90
52869;DHT22;39100;53.480;6.158;2022-11-25T02:08:27;7.60;99.90
52869;DHT22;39100;53.480;6.158;2022-11-25T02:10:54;7.60;99.90
52869;DHT22;39100;53.480;6.158;2022-11-25T02:13:21;7.50;99.90
52869;DHT22;39100;53.480;6.158;2022-11-25T02:15:48;7.50;99.90
52869;DHT22;39100;53.480;6.158;2022-11-25T02:18:14;7.50;99.90
52869;DHT22;39100;53.480;6.158;2022-11-25T02:20:40;7.50;99.90
52869;DHT22;39100;53.480;6.158;2022-11-25T02:23:25;7.50;99.90
52869;DHT22;39100;53.480;6.158;2022-11-25T02:25:53;7.50;99.90
52869;DHT22;39100;53.480;6.158;2022-11-25T02:28:22;7.50;99.90
52869;DHT22;39100;53.480;6.158;2022-11-25T02:30:49;7.50;99.90
52869;DHT22;39100;53.480;6.158;2022-11-25T02:33:15;7.50;99.90
52869;DHT22;39100;53.480;6.158;2022-11-25T02:35:50;7.50;99.90
52869;DHT22;39100;53.480;6.158;2022-11-25T02:40:54;7.50;99.90
52869;DHT22;39100;53.480;6.158;2022-11-25T02:43:21;7.50;99.90
52869;DHT22;39100;53.480;6.158;2022-11-25T02:46:03;7.50;99.90
52869;DHT22;39100;53.480;6.158;2022-11-25T02:48:31;7.50;99.90
52869;DHT22;39100;53.480;6.158;2022-11-25T02:50:58;7.50;99.90
52869;DHT22;39100;53.480;6.158;2022-11-25T02:53:23;7.50;99.90
52869;DHT22;39100;53.480;6.158;2022-11-25T02:55:49;7.50;99.90
52869;DHT22;39100;53.480;6.158;2022-11-25T02:58:15;7.50;99.90
52869;DHT22;39100;53.480;6.158;2022-11-25T03:00:41;7.50;99.90
52869;DHT22;39100;53.480;6.158;2022-11-25T03:03:08;7.50;99.90
52869;DHT22;39100;53.480;6.158;2022-11-25T03:05:33;7.50;99.90
52869;DHT22;39100;53.480;6.158;2022-11-25T03:07:59;7.50;99.90
52869;DHT22;39100;53.480;6.158;2022-11-25T03:10:25;7.50;99.90
52869;DHT22;39100;53.480;6.158;2022-11-25T03:12:50;7.50;99.90
52869;DHT22;39100;53.480;6.158;2022-11-25T03:15:16;7.50;99.90
52869;DHT22;39100;53.480;6.158;2022-11-25T03:17:42;7.90;99.90
52869;DHT22;39100;53.480;6.158;2022-11-25T03:20:08;7.50;99.90
52869;DHT22;39100;53.480;6.158;2022-11-25T03:22:34;7.50;99.90
52869;DHT22;39100;53.480;6.158;2022-11-25T03:24:59;7.50;99.90
52869;DHT22;39100;53.480;6.158;2022-11-25T03:27:25;7.50;99.90
52869;DHT22;39100;53.480;6.158;2022-11-25T03:29:50;7.50;99.90
52869;DHT22;39100;53.480;6.158;2022-11-25T03:32:16;7.50;99.90
52869;DHT22;39100;53.480;6.158;2022-11-25T03:34:42;7.50;99.90
52869;DHT22;39100;53.480;6.158;2022-11-25T03:37:07;7.50;99.90
52869;DHT22;39100;53.480;6.158;2022-11-25T03:39:33;7.50;99.90
52869;DHT22;39100;53.480;6.158;2022-11-25T03:41:59;7.50;99.90
52869;DHT22;39100;53.480;6.158;2022-11-25T03:44:24;7.60;99.90
52869;DHT22;39100;53.480;6.158;2022-11-25T03:46:50;7.60;99.90
52869;DHT22;39100;53.480;6.158;2022-11-25T03:49:16;7.60;99.90
52869;DHT22;39100;53.480;6.158;2022-11-25T03:51:41;7.60;99.90
52869;DHT22;39100;53.480;6.158;2022-11-25T03:54:07;7.60;99.90
52869;DHT22;39100;53.480;6.158;2022-11-25T03:56:32;7.60;99.90
52869;DHT22;39100;53.480;6.158;2022-11-25T03:58:58;7.60;99.90
52869;DHT22;39100;53.480;6.158;2022-11-25T04:01:23;7.60;99.90
52869;DHT22;39100;53.480;6.158;2022-11-25T04:03:49;7.70;99.90
52869;DHT22;39100;53.480;6.158;2022-11-25T04:06:15;7.70;99.90
52869;DHT22;39100;53.480;6.158;2022-11-25T04:08:43;7.70;99.90
52869;DHT22;39100;53.480;6.158;2022-11-25T04:11:08;7.70;99.90
52869;DHT22;39100;53.480;6.158;2022-11-25T04:13:34;7.80;99.90
52869;DHT22;39100;53.480;6.158;2022-11-25T04:15:59;7.80;99.90
52869;DHT22;39100;53.480;6.158;2022-11-25T04:18:25;7.80;99.90
52869;DHT22;39100;53.480;6.158;2022-11-25T04:20:51;7.80;99.90
52869;DHT22;39100;53.480;6.158;2022-11-25T04:23:16;7.90;99.90
52869;DHT22;39100;53.480;6.158;2022-11-25T04:25:42;7.90;99.90
52869;DHT22;39100;53.480;6.158;2022-11-25T04:28:07;7.90;99.90
52869;DHT22;39100;53.480;6.158;2022-11-25T04:30:33;7.90;99.90
52869;DHT22;39100;53.480;6.158;2022-11-25T04:33:00;8.10;99.90
52869;DHT22;39100;53.480;6.158;2022-11-25T04:35:26;7.90;99.90
52869;DHT22;39100;53.480;6.158;2022-11-25T04:37:51;7.90;99.90
52869;DHT22;39100;53.480;6.158;2022-11-25T04:40:17;8.00;99.90
52869;DHT22;39100;53.480;6.158;2022-11-25T04:42:43;8.00;99.90
52869;DHT22;39100;53.480;6.158;2022-11-25T04:45:14;8.00;99.90
52869;DHT22;39100;53.480;6.158;2022-11-25T04:47:40;8.00;99.90
52869;DHT22;39100;53.480;6.158;2022-11-25T04:50:10;8.00;99.90
52869;DHT22;39100;53.480;6.158;2022-11-25T04:52:36;8.00;99.90
52869;DHT22;39100;53.480;6.158;2022-11-25T04:55:02;8.00;99.90
52869;DHT22;39100;53.480;6.158;2022-11-25T04:57:28;8.00;99.90
52869;DHT22;39100;53.480;6.158;2022-11-25T04:59:54;8.00;99.90
52869;DHT22;39100;53.480;6.158;2022-11-25T05:02:25;8.00;99.90
52869;DHT22;39100;53.480;6.158;2022-11-25T05:04:52;8.00;99.90
52869;DHT22;39100;53.480;6.158;2022-11-25T05:07:21;8.10;99.90
52869;DHT22;39100;53.480;6.158;2022-11-25T05:09:47;8.00;99.90
52869;DHT22;39100;53.480;6.158;2022-11-25T05:12:15;8.00;99.90
52869;DHT22;39100;53.480;6.158;2022-11-25T05:14:42;8.00;99.90
52869;DHT22;39100;53.480;6.158;2022-11-25T05:17:12;8.00;99.90
52869;DHT22;39100;53.480;6.158;2022-11-25T05:19:38;8.00;99.90
52869;DHT22;39100;53.480;6.158;2022-11-25T05:22:03;8.00;99.90
52869;DHT22;39100;53.480;6.158;2022-11-25T05:24:29;8.00;99.90
52869;DHT22;39100;53.480;6.158;2022-11-25T05:26:55;8.00;99.90
52869;DHT22;39100;53.480;6.158;2022-11-25T05:29:20;8.00;99.90
52869;DHT22;39100;53.480;6.158;2022-11-25T05:31:46;7.90;99.90
52869;DHT22;39100;53.480;6.158;2022-11-25T05:34:12;7.90;99.90
52869;DHT22;39100;53.480;6.158;2022-11-25T05:36:37;7.80;99.90
52869;DHT22;39100;53.480;6.158;2022-11-25T05:39:03;7.80;99.90
52869;DHT22;39100;53.480;6.158;2022-11-25T05:41:29;7.80;99.90
52869;DHT22;39100;53.480;6.158;2022-11-25T05:43:55;7.80;99.90
52869;DHT22;39100;53.480;6.158;2022-11-25T05:46:21;7.80;99.90
52869;DHT22;39100;53.480;6.158;2022-11-25T05:48:47;7.80;99.90
52869;DHT22;39100;53.480;6.158;2022-11-25T05:51:12;7.80;99.90
52869;DHT22;39100;53.480;6.158;2022-11-25T05:53:38;7.80;99.90
52869;DHT22;39100;53.480;6.158;2022-11-25T05:56:05;7.80;99.90
52869;DHT22;39100;53.480;6.158;2022-11-25T05:58:31;7.80;99.90
52869;DHT22;39100;53.480;6.158;2022-11-25T06:00:57;7.80;99.90
52869;DHT22;39100;53.480;6.158;2022-11-25T06:03:27;7.90;99.90
52869;DHT22;39100;53.480;6.158;2022-11-25T06:05:57;7.90;99.90
52869;DHT22;39100;53.480;6.158;2022-11-25T06:08:24;7.90;99.90
52869;DHT22;39100;53.480;6.158;2022-11-25T06:10:50;8.00;99.90
52869;DHT22;39100;53.480;6.158;2022-11-25T06:13:16;8.00;99.90
52869;DHT22;39100;53.480;6.158;2022-11-25T06:15:43;8.00;99.90
52869;DHT22;39100;53.480;6.158;2022-11-25T06:18:09;8.00;99.90
52869;DHT22;39100;53.480;6.158;2022-11-25T06:20:35;8.00;99.90
52869;DHT22;39100;53.480;6.158;2022-11-25T06:23:01;8.10;99.90
52869;DHT22;39100;53.480;6.158;2022-11-25T06:25:27;8.10;99.90
52869;DHT22;39100;53.480;6.158;2022-11-25T06:27:53;8.10;99.90
52869;DHT22;39100;53.480;6.158;2022-11-25T06:30:19;8.10;99.90
52869;DHT22;39100;53.480;6.158;2022-11-25T06:32:45;8.10;99.90
52869;DHT22;39100;53.480;6.158;2022-11-25T06:35:11;8.10;99.90
52869;DHT22;39100;53.480;6.158;2022-11-25T06:37:36;8.10;99.90
52869;DHT22;39100;53.480;6.158;2022-11-25T06:40:03;8.20;99.90
52869;DHT22;39100;53.480;6.158;2022-11-25T06:42:29;8.20;99.90
52869;DHT22;39100;53.480;6.158;2022-11-25T06:44:55;8.20;99.90
52869;DHT22;39100;53.480;6.158;2022-11-25T06:47:20;8.20;99.90
52869;DHT22;39100;53.480;6.158;2022-11-25T06:49:46;8.20;99.90
52869;DHT22;39100;53.480;6.158;2022-11-25T06:52:12;8.20;99.90
52869;DHT22;39100;53.480;6.158;2022-11-25T06:54:37;8.20;99.90
52869;DHT22;39100;53.480;6.158;2022-11-25T06:57:06;8.20;99.90
52869;DHT22;39100;53.480;6.158;2022-11-25T06:59:32;8.20;99.90
52869;DHT22;39100;53.480;6.158;2022-11-25T07:01:58;8.20;99.90
52869;DHT22;39100;53.480;6.158;2022-11-25T07:04:23;8.20;99.90
52869;DHT22;39100;53.480;6.158;2022-11-25T07:06:49;8.20;99.90
52869;DHT22;39100;53.480;6.158;2022-11-25T07:09:15;8.20;99.90
52869;DHT22;39100;53.480;6.158;2022-11-25T07:11:40;8.10;99.90
52869;DHT22;39100;53.480;6.158;2022-11-25T07:14:09;8.10;99.90
52869;DHT22;39100;53.480;6.158;2022-11-25T07:16:38;8.10;99.90
52869;DHT22;39100;53.480;6.158;2022-11-25T07:19:04;8.10;99.90
52869;DHT22;39100;53.480;6.158;2022-11-25T07:21:31;8.10;99.90
52869;DHT22;39100;53.480;6.158;2022-11-25T07:24:03;8.10;99.90
52869;DHT22;39100;53.480;6.158;2022-11-25T07:26:32;8.00;99.90
52869;DHT22;39100;53.480;6.158;2022-11-25T07:29:00;8.00;99.90
52869;DHT22;39100;53.480;6.158;2022-11-25T07:31:29;8.00;99.90
52869;DHT22;39100;53.480;6.158;2022-11-25T07:34:03;8.00;99.90
52869;DHT22;39100;53.480;6.158;2022-11-25T07:36:30;7.90;99.90
52869;DHT22;39100;53.480;6.158;2022-11-25T07:38:58;7.90;99.90
52869;DHT22;39100;53.480;6.158;2022-11-25T07:41:25;7.80;99.90
52869;DHT22;39100;53.480;6.158;2022-11-25T07:43:53;7.80;99.90
52869;DHT22;39100;53.480;6.158;2022-11-25T07:46:27;7.80;99.90
52869;DHT22;39100;53.480;6.158;2022-11-25T07:48:55;8.00;99.90
52869;DHT22;39100;53.480;6.158;2022-11-25T07:51:29;7.80;99.90
52869;DHT22;39100;53.480;6.158;2022-11-25T07:53:57;7.80;99.90
52869;DHT22;39100;53.480;6.158;2022-11-25T07:56:24;7.80;99.90
52869;DHT22;39100;53.480;6.158;2022-11-25T07:58:49;7.80;99.90
52869;DHT22;39100;53.480;6.158;2022-11-25T08:01:16;7.80;99.90
52869;DHT22;39100;53.480;6.158;2022-11-25T08:03:44;7.80;99.90
52869;DHT22;39100;53.480;6.158;2022-11-25T08:06:12;7.80;99.90
52869;DHT22;39100;53.480;6.158;2022-11-25T08:08:40;7.80;99.90
52869;DHT22;39100;53.480;6.158;2022-11-25T08:11:07;7.80;99.90
52869;DHT22;39100;53.480;6.158;2022-11-25T08:13:33;7.80;99.90
52869;DHT22;39100;53.480;6.158;2022-11-25T08:15:59;7.80;99.90
52869;DHT22;39100;53.480;6.158;2022-11-25T08:18:25;7.80;99.90
52869;DHT22;39100;53.480;6.158;2022-11-25T08:20:51;7.80;99.90
52869;DHT22;39100;53.480;6.158;2022-11-25T08:23:16;7.80;99.90
52869;DHT22;39100;53.480;6.158;2022-11-25T08:25:42;7.80;99.90
52869;DHT22;39100;53.480;6.158;2022-11-25T08:28:08;7.80;99.90
52869;DHT22;39100;53.480;6.158;2022-11-25T08:30:34;7.80;99.90
52869;DHT22;39100;53.480;6.158;2022-11-25T08:33:00;7.90;99.90
52869;DHT22;39100;53.480;6.158;2022-11-25T08:35:26;7.90;99.90
52869;DHT22;39100;53.480;6.158;2022-11-25T08:37:51;8.00;99.90
52869;DHT22;39100;53.480;6.158;2022-11-25T08:40:18;8.00;99.90
52869;DHT22;39100;53.480;6.158;2022-11-25T08:42:43;8.10;99.90
52869;DHT22;39100;53.480;6.158;2022-11-25T08:45:09;8.10;99.90
52869;DHT22;39100;53.480;6.158;2022-11-25T08:47:35;8.20;99.90
52869;DHT22;39100;53.480;6.158;2022-11-25T08:50:01;8.20;99.90
52869;DHT22;39100;53.480;6.158;2022-11-25T08:52:26;8.30;99.90
52869;DHT22;39100;53.480;6.158;2022-11-25T08:54:53;8.30;99.90
52869;DHT22;39100;53.480;6.158;2022-11-25T08:57:19;8.40;99.90
52869;DHT22;39100;53.480;6.158;2022-11-25T08:59:44;8.50;99.90
52869;DHT22;39100;53.480;6.158;2022-11-25T09:02:11;8.50;99.90
52869;DHT22;39100;53.480;6.158;2022-11-25T09:04:38;8.60;99.90
52869;DHT22;39100;53.480;6.158;2022-11-25T09:07:04;8.60;99.90
52869;DHT22;39100;53.480;6.158;2022-11-25T09:09:30;8.70;99.90
52869;DHT22;39100;53.480;6.158;2022-11-25T09:11:56;8.70;99.90
52869;DHT22;39100;53.480;6.158;2022-11-25T09:14:21;8.70;99.90
52869;DHT22;39100;53.480;6.158;2022-11-25T09:16:47;8.80;99.90
52869;DHT22;39100;53.480;6.158;2022-11-25T09:19:12;8.80;99.90
52869;DHT22;39100;53.480;6.158;2022-11-25T09:21:38;8.70;99.90
52869;DHT22;39100;53.480;6.158;2022-11-25T09:24:04;8.80;99.90
52869;DHT22;39100;53.480;6.158;2022-11-25T09:26:31;8.90;99.90
52869;DHT22;39100;53.480;6.158;2022-11-25T09:29:00;8.80;99.90
52869;DHT22;39100;53.480;6.158;2022-11-25T09:31:25;8.90;99.90
52869;DHT22;39100;53.480;6.158;2022-11-25T09:33:51;8.90;99.90
52869;DHT22;39100;53.480;6.158;2022-11-25T09:36:18;9.00;99.90
52869;DHT22;39100;53.480;6.158;2022-11-25T09:38:43;9.00;99.90
52869;DHT22;39100;53.480;6.158;2022-11-25T09:41:23;9.10;99.90
52869;DHT22;39100;53.480;6.158;2022-11-25T09:44:27;9.10;99.90
52869;DHT22;39100;53.480;6.158;2022-11-25T09:47:19;9.10;99.90
52869;DHT22;39100;53.480;6.158;2022-11-25T09:55:23;9.40;99.90
52869;DHT22;39100;53.480;6.158;2022-11-25T10:00:40;9.60;99.90
52869;DHT22;39100;53.480;6.158;2022-11-25T10:05:44;9.70;99.90
52869;DHT22;39100;53.480;6.158;2022-11-25T10:08:21;9.80;99.90
52869;DHT22;39100;53.480;6.158;2022-11-25T10:13:47;10.00;99.90
52869;DHT22;39100;53.480;6.158;2022-11-25T10:21:40;10.80;99.90
52869;DHT22;39100;53.480;6.158;2022-11-25T10:24:12;10.90;99.90
52869;DHT22;39100;53.480;6.158;2022-11-25T10:26:41;10.90;99.90
52869;DHT22;39100;53.480;6.158;2022-11-25T10:31:41;10.90;99.90
52869;DHT22;39100;53.480;6.158;2022-11-25T10:36:42;11.00;99.90
52869;DHT22;39100;53.480;6.158;2022-11-25T10:39:20;11.00;99.90
52869;DHT22;39100;53.480;6.158;2022-11-25T10:41:55;11.10;99.90
52869;DHT22;39100;53.480;6.158;2022-11-25T10:44:31;11.00;99.90
52869;DHT22;39100;53.480;6.158;2022-11-25T10:52:22;11.00;99.90
52869;DHT22;39100;53.480;6.158;2022-11-25T10:55:13;11.10;99.90
52869;DHT22;39100;53.480;6.158;2022-11-25T10:57:39;11.20;99.90
52869;DHT22;39100;53.480;6.158;2022-11-25T11:00:07;11.20;99.90
52869;DHT22;39100;53.480;6.158;2022-11-25T11:02:39;11.30;99.90
52869;DHT22;39100;53.480;6.158;2022-11-25T11:07:39;11.30;99.90
52869;DHT22;39100;53.480;6.158;2022-11-25T11:13:22;11.40;99.90
52869;DHT22;39100;53.480;6.158;2022-11-25T11:15:50;11.30;99.90
52869;DHT22;39100;53.480;6.158;2022-11-25T11:20:58;11.10;99.90
52869;DHT22;39100;53.480;6.158;2022-11-25T11:23:25;11.10;99.90
52869;DHT22;39100;53.480;6.158;2022-11-25T11:26:04;11.10;99.90
52869;DHT22;39100;53.480;6.158;2022-11-25T11:28:40;11.20;99.90
52869;DHT22;39100;53.480;6.158;2022-11-25T11:31:21;11.20;99.90
52869;DHT22;39100;53.480;6.158;2022-11-25T11:36:45;11.40;99.90
52869;DHT22;39100;53.480;6.158;2022-11-25T11:41:55;11.50;99.90
52869;DHT22;39100;53.480;6.158;2022-11-25T11:44:50;11.50;99.90
52869;DHT22;39100;53.480;6.158;2022-11-25T11:47:32;11.50;99.90
52869;DHT22;39100;53.480;6.158;2022-11-25T11:52:57;11.60;99.90
52869;DHT22;39100;53.480;6.158;2022-11-25T11:55:49;11.60;99.90
52869;DHT22;39100;53.480;6.158;2022-11-25T12:01:20;11.80;99.90
52869;DHT22;39100;53.480;6.158;2022-11-25T12:06:33;11.90;99.90
52869;DHT22;39100;53.480;6.158;2022-11-25T12:09:06;11.90;99.90
52869;DHT22;39100;53.480;6.158;2022-11-25T12:11:37;11.80;99.90
52869;DHT22;39100;53.480;6.158;2022-11-25T12:16:49;11.50;99.90
52869;DHT22;39100;53.480;6.158;2022-11-25T12:19:39;11.40;99.90
52869;DHT22;39100;53.480;6.158;2022-11-25T12:22:17;11.30;99.90
52869;DHT22;39100;53.480;6.158;2022-11-25T12:25:15;11.40;99.90
52869;DHT22;39100;53.480;6.158;2022-11-25T12:27:49;11.50;99.90
52869;DHT22;39100;53.480;6.158;2022-11-25T12:30:28;11.60;99.90
52869;DHT22;39100;53.480;6.158;2022-11-25T12:33:11;11.60;99.90
52869;DHT22;39100;53.480;6.158;2022-11-25T12:38:55;11.50;99.90
52869;DHT22;39100;53.480;6.158;2022-11-25T12:41:46;11.40;99.90
52869;DHT22;39100;53.480;6.158;2022-11-25T12:44:27;11.20;99.90
52869;DHT22;39100;53.480;6.158;2022-11-25T12:46:55;11.20;99.90
52869;DHT22;39100;53.480;6.158;2022-11-25T12:49:28;11.10;99.90
52869;DHT22;39100;53.480;6.158;2022-11-25T13:02:58;10.70;99.90
52869;DHT22;39100;53.480;6.158;2022-11-25T13:14:23;10.60;99.90
52869;DHT22;39100;53.480;6.158;2022-11-25T13:16:51;10.70;99.90
52869;DHT22;39100;53.480;6.158;2022-11-25T13:19:18;10.70;99.90
52869;DHT22;39100;53.480;6.158;2022-11-25T13:22:01;10.70;99.90
52869;DHT22;39100;53.480;6.158;2022-11-25T13:24:39;10.60;99.90
52869;DHT22;39100;53.480;6.158;2022-11-25T13:29:54;10.60;99.90
52869;DHT22;39100;53.480;6.158;2022-11-25T13:32:31;11.40;99.90
52869;DHT22;39100;53.480;6.158;2022-11-25T13:37:49;10.60;99.90
52869;DHT22;39100;53.480;6.158;2022-11-25T13:42:48;10.60;99.90
52869;DHT22;39100;53.480;6.158;2022-11-25T13:45:32;11.50;99.90
52869;DHT22;39100;53.480;6.158;2022-11-25T13:50:35;10.50;99.90
52869;DHT22;39100;53.480;6.158;2022-11-25T13:53:31;10.60;99.90
52869;DHT22;39100;53.480;6.158;2022-11-25T13:56:13;10.60;99.90
52869;DHT22;39100;53.480;6.158;2022-11-25T13:58:39;10.70;99.90
52869;DHT22;39100;53.480;6.158;2022-11-25T14:01:21;10.70;99.90
52869;DHT22;39100;53.480;6.158;2022-11-25T14:03:50;10.70;99.90
52869;DHT22;39100;53.480;6.158;2022-11-25T14:06:51;10.70;99.90
52869;DHT22;39100;53.480;6.158;2022-11-25T14:09:35;10.70;99.90
52869;DHT22;39100;53.480;6.158;2022-11-25T14:12:30;10.70;99.90
52869;DHT22;39100;53.480;6.158;2022-11-25T14:21:02;10.30;99.90
52869;DHT22;39100;53.480;6.158;2022-11-25T14:23:59;10.30;99.90
52869;DHT22;39100;53.480;6.158;2022-11-25T14:26:33;10.20;99.90
52869;DHT22;39100;53.480;6.158;2022-11-25T14:29:03;10.10;99.90
52869;DHT22;39100;53.480;6.158;2022-11-25T14:31:53;10.00;99.90
52869;DHT22;39100;53.480;6.158;2022-11-25T14:34:38;10.00;99.90
52869;DHT22;39100;53.480;6.158;2022-11-25T14:37:28;9.90;99.90
52869;DHT22;39100;53.480;6.158;2022-11-25T14:42:36;9.70;99.90
52869;DHT22;39100;53.480;6.158;2022-11-25T14:47:50;9.60;99.90
52869;DHT22;39100;53.480;6.158;2022-11-25T14:50:16;9.60;99.90
52869;DHT22;39100;53.480;6.158;2022-11-25T14:52:42;9.50;99.90
52869;DHT22;39100;53.480;6.158;2022-11-25T14:55:09;9.50;99.90
52869;DHT22;39100;53.480;6.158;2022-11-25T14:57:37;9.50;99.90
52869;DHT22;39100;53.480;6.158;2022-11-25T15:00:05;9.40;99.90
52869;DHT22;39100;53.480;6.158;2022-11-25T15:02:35;9.40;99.90
52869;DHT22;39100;53.480;6.158;2022-11-25T15:05:13;9.40;99.90
52869;DHT22;39100;53.480;6.158;2022-11-25T15:07:41;9.30;99.90
52869;DHT22;39100;53.480;6.158;2022-11-25T15:10:28;9.30;99.90
52869;DHT22;39100;53.480;6.158;2022-11-25T15:12:54;9.30;99.90
52869;DHT22;39100;53.480;6.158;2022-11-25T15:15:19;9.20;99.90
52869;DHT22;39100;53.480;6.158;2022-11-25T15:17:45;9.20;99.90
52869;DHT22;39100;53.480;6.158;2022-11-25T15:20:13;9.10;99.90
52869;DHT22;39100;53.480;6.158;2022-11-25T15:22:45;9.10;99.90
52869;DHT22;39100;53.480;6.158;2022-11-25T15:25:13;9.00;99.90
52869;DHT22;39100;53.480;6.158;2022-11-25T15:27:45;9.00;99.90
52869;DHT22;39100;53.480;6.158;2022-11-25T15:30:25;9.00;99.90
52869;DHT22;39100;53.480;6.158;2022-11-25T15:32:52;9.00;99.90
52869;DHT22;39100;53.480;6.158;2022-11-25T15:35:21;8.90;99.90
52869;DHT22;39100;53.480;6.158;2022-11-25T15:37:47;8.90;99.90
52869;DHT22;39100;53.480;6.158;2022-11-25T15:40:33;8.90;99.90
52869;DHT22;39100;53.480;6.158;2022-11-25T15:43:04;8.90;99.90
52869;DHT22;39100;53.480;6.158;2022-11-25T15:45:41;8.90;99.90
52869;DHT22;39100;53.480;6.158;2022-11-25T15:48:20;8.90;99.90
52869;DHT22;39100;53.480;6.158;2022-11-25T15:50:49;8.90;99.90
52869;DHT22;39100;53.480;6.158;2022-11-25T15:53:22;8.90;99.90
52869;DHT22;39100;53.480;6.158;2022-11-25T15:55:49;8.80;99.90
52869;DHT22;39100;53.480;6.158;2022-11-25T15:58:21;8.70;99.90
52869;DHT22;39100;53.480;6.158;2022-11-25T16:01:03;8.70;99.90
52869;DHT22;39100;53.480;6.158;2022-11-25T16:03:29;8.70;99.90
52869;DHT22;39100;53.480;6.158;2022-11-25T16:05:57;8.60;99.90
52869;DHT22;39100;53.480;6.158;2022-11-25T16:08:30;8.60;99.90
52869;DHT22;39100;53.480;6.158;2022-11-25T16:10:58;8.60;99.90
52869;DHT22;39100;53.480;6.158;2022-11-25T16:13:28;8.50;99.90
52869;DHT22;39100;53.480;6.158;2022-11-25T16:18:39;8.50;99.90
52869;DHT22;39100;53.480;6.158;2022-11-25T16:21:17;8.50;99.90
52869;DHT22;39100;53.480;6.158;2022-11-25T16:23:53;8.40;99.90
52869;DHT22;39100;53.480;6.158;2022-11-25T16:26:27;8.40;99.90
52869;DHT22;39100;53.480;6.158;2022-11-25T16:28:54;8.40;99.90
52869;DHT22;39100;53.480;6.158;2022-11-25T16:31:20;8.30;99.90
52869;DHT22;39100;53.480;6.158;2022-11-25T16:33:45;8.30;99.90
52869;DHT22;39100;53.480;6.158;2022-11-25T16:36:11;8.30;99.90
52869;DHT22;39100;53.480;6.158;2022-11-25T16:38:36;8.30;99.90
52869;DHT22;39100;53.480;6.158;2022-11-25T16:41:27;8.30;99.90
52869;DHT22;39100;53.480;6.158;2022-11-25T16:43:54;8.20;99.90
52869;DHT22;39100;53.480;6.158;2022-11-25T16:46:19;8.20;99.90
52869;DHT22;39100;53.480;6.158;2022-11-25T16:48:46;8.20;99.90
52869;DHT22;39100;53.480;6.158;2022-11-25T16:51:16;8.20;99.90
52869;DHT22;39100;53.480;6.158;2022-11-25T16:53:43;8.10;99.90
52869;DHT22;39100;53.480;6.158;2022-11-25T16:56:15;8.10;99.90
52869;DHT22;39100;53.480;6.158;2022-11-25T16:58:42;8.10;99.90
52869;DHT22;39100;53.480;6.158;2022-11-25T17:01:14;8.00;99.90
52869;DHT22;39100;53.480;6.158;2022-11-25T17:03:40;8.00;99.90
52869;DHT22;39100;53.480;6.158;2022-11-25T17:06:14;8.00;99.90
52869;DHT22;39100;53.480;6.158;2022-11-25T17:08:40;8.00;99.90
52869;DHT22;39100;53.480;6.158;2022-11-25T17:11:12;7.90;99.90
52869;DHT22;39100;53.480;6.158;2022-11-25T17:13:42;7.90;99.90
52869;DHT22;39100;53.480;6.158;2022-11-25T17:16:14;7.90;99.90
52869;DHT22;39100;53.480;6.158;2022-11-25T17:18:40;7.90;99.90
52869;DHT22;39100;53.480;6.158;2022-11-25T17:21:10;7.90;99.90
52869;DHT22;39100;53.480;6.158;2022-11-25T17:23:36;7.90;99.90
52869;DHT22;39100;53.480;6.158;2022-11-25T17:26:02;7.90;99.90
52869;DHT22;39100;53.480;6.158;2022-11-25T17:28:27;7.80;99.90
52869;DHT22;39100;53.480;6.158;2022-11-25T17:30:53;7.80;99.90
52869;DHT22;39100;53.480;6.158;2022-11-25T17:33:19;7.80;99.90
52869;DHT22;39100;53.480;6.158;2022-11-25T17:35:45;7.70;99.90
52869;DHT22;39100;53.480;6.158;2022-11-25T17:38:13;7.70;99.90
52869;DHT22;39100;53.480;6.158;2022-11-25T17:40:41;7.70;99.90
52869;DHT22;39100;53.480;6.158;2022-11-25T17:43:14;7.70;99.90